sensor_id;sensor_type;location;lat;lon;timestamp;temperature;humidity
63966;DHT22;50151;52.030;5.350;2022-09-27T05:38:20;8.90;99.90
63966;DHT22;50151;52.030;5.350;2022-09-27T05:40:48;8.90;99.90
63966;DHT22;50151;52.030;5.350;2022-09-27T05:43:17;8.90;99.90
63966;DHT22;50151;52.030;5.350;2022-09-27T05:45:44;8.80;99.90
63966;DHT22;50151;52.030;5.350;2022-09-27T05:48:11;8.80;99.90
63966;DHT22;50151;52.030;5.350;2022-09-27T05:50:40;8.80;99.90
63966;DHT22;50151;52.030;5.350;2022-09-27T05:53:08;8.80;99.90
63966;DHT22;50151;52.030;5.350;2022-09-27T05:55:35;8.80;99.90
63966;DHT22;50151;52.030;5.350;2022-09-27T05:58:04;8.80;99.90
63966;DHT22;50151;52.030;5.350;2022-09-27T06:00:32;8.90;99.90
63966;DHT22;50151;52.030;5.350;2022-09-27T06:03:03;8.90;99.90
63966;DHT22;50151;52.030;5.350;2022-09-27T06:05:34;8.90;99.90
63966;DHT22;50151;52.030;5.350;2022-09-27T06:08:05;8.90;99.90
63966;DHT22;50151;52.030;5.350;2022-09-27T06:10:32;9.00;99.90
63966;DHT22;50151;52.030;5.350;2022-09-27T06:13:04;9.10;99.90
63966;DHT22;50151;52.030;5.350;2022-09-27T06:15:31;9.10;99.90
63966;DHT22;50151;52.030;5.350;2022-09-27T06:18:04;9.10;99.90
63966;DHT22;50151;52.030;5.350;2022-09-27T06:20:31;9.20;99.90
63966;DHT22;50151;52.030;5.350;2022-09-27T06:23:09;9.20;99.90
63966;DHT22;50151;52.030;5.350;2022-09-27T06:25:36;9.20;99.90
63966;DHT22;50151;52.030;5.350;2022-09-27T06:28:04;9.20;99.90
63966;DHT22;50151;52.030;5.350;2022-09-27T06:30:31;9.20;99.90
63966;DHT22;50151;52.030;5.350;2022-09-27T06:32:59;9.30;99.90
63966;DHT22;50151;52.030;5.350;2022-09-27T06:35:27;9.20;99.90
63966;DHT22;50151;52.030;5.350;2022-09-27T06:37:54;9.20;99.90
63966;DHT22;50151;52.030;5.350;2022-09-27T06:40:22;9.20;99.90
63966;DHT22;50151;52.030;5.350;2022-09-27T06:42:52;9.30;99.90
63966;DHT22;50151;52.030;5.350;2022-09-27T06:45:19;9.30;99.90
63966;DHT22;50151;52.030;5.350;2022-09-27T06:47:45;9.30;99.90
63966;DHT22;50151;52.030;5.350;2022-09-27T06:50:12;9.30;99.90
63966;DHT22;50151;52.030;5.350;2022-09-27T06:52:48;9.40;99.90
63966;DHT22;50151;52.030;5.350;2022-09-27T06:55:16;9.30;99.90
63966;DHT22;50151;52.030;5.350;2022-09-27T06:57:42;9.30;99.90
63966;DHT22;50151;52.030;5.350;2022-09-27T07:00:28;9.40;99.90
63966;DHT22;50151;52.030;5.350;2022-09-27T07:02:56;9.40;99.90
63966;DHT22;50151;52.030;5.350;2022-09-27T07:05:27;9.40;99.90
63966;DHT22;50151;52.030;5.350;2022-09-27T07:07:55;9.50;99.90
63966;DHT22;50151;52.030;5.350;2022-09-27T07:10:24;9.50;99.90
63966;DHT22;50151;52.030;5.350;2022-09-27T07:12:52;9.60;99.90
63966;DHT22;50151;52.030;5.350;2022-09-27T07:15:19;9.60;99.90
63966;DHT22;50151;52.030;5.350;2022-09-27T07:17:56;9.60;99.90
63966;DHT22;50151;52.030;5.350;2022-09-27T07:20:25;9.70;99.90
63966;DHT22;50151;52.030;5.350;2022-09-27T07:22:52;9.80;99.90
63966;DHT22;50151;52.030;5.350;2022-09-27T07:25:18;9.80;99.90
63966;DHT22;50151;52.030;5.350;2022-09-27T07:27:45;9.80;99.90
63966;DHT22;50151;52.030;5.350;2022-09-27T07:30:12;9.90;99.90
63966;DHT22;50151;52.030;5.350;2022-09-27T07:32:39;9.90;99.90
63966;DHT22;50151;52.030;5.350;2022-09-27T07:35:07;9.90;99.90
63966;DHT22;50151;52.030;5.350;2022-09-27T07:37:35;9.90;99.90
63966;DHT22;50151;52.030;5.350;2022-09-27T07:40:05;9.90;99.90
63966;DHT22;50151;52.030;5.350;2022-09-27T07:42:33;9.90;99.90
63966;DHT22;50151;52.030;5.350;2022-09-27T07:44:59;9.90;99.90
63966;DHT22;50151;52.030;5.350;2022-09-27T07:47:26;10.00;99.90
63966;DHT22;50151;52.030;5.350;2022-09-27T07:49:53;9.90;99.90
63966;DHT22;50151;52.030;5.350;2022-09-27T07:52:19;10.00;99.90
63966;DHT22;50151;52.030;5.350;2022-09-27T07:54:46;10.00;99.90
63966;DHT22;50151;52.030;5.350;2022-09-27T07:57:14;10.00;99.90
63966;DHT22;50151;52.030;5.350;2022-09-27T07:59:41;10.00;99.90
63966;DHT22;50151;52.030;5.350;2022-09-27T08:02:12;9.90;99.90
63966;DHT22;50151;52.030;5.350;2022-09-27T08:04:41;10.00;99.90
63966;DHT22;50151;52.030;5.350;2022-09-27T08:07:13;10.00;99.90
63966;DHT22;50151;52.030;5.350;2022-09-27T08:09:40;10.00;99.90
63966;DHT22;50151;52.030;5.350;2022-09-27T08:12:07;10.00;99.90
63966;DHT22;50151;52.030;5.350;2022-09-27T08:14:34;9.90;99.90
63966;DHT22;50151;52.030;5.350;2022-09-27T08:17:12;9.90;99.90
63966;DHT22;50151;52.030;5.350;2022-09-27T08:19:39;9.90;99.90
63966;DHT22;50151;52.030;5.350;2022-09-27T08:22:06;10.00;99.90
63966;DHT22;50151;52.030;5.350;2022-09-27T08:24:33;9.90;99.90
63966;DHT22;50151;52.030;5.350;2022-09-27T08:27:04;9.90;99.90
63966;DHT22;50151;52.030;5.350;2022-09-27T08:29:37;10.00;99.90
63966;DHT22;50151;52.030;5.350;2022-09-27T08:32:11;10.10;99.90
63966;DHT22;50151;52.030;5.350;2022-09-27T08:34:38;10.10;99.90
63966;DHT22;50151;52.030;5.350;2022-09-27T08:37:05;10.10;99.90
63966;DHT22;50151;52.030;5.350;2022-09-27T08:39:32;10.20;99.90
63966;DHT22;50151;52.030;5.350;2022-09-27T08:45:06;10.10;99.90
63966;DHT22;50151;52.030;5.350;2022-09-27T08:47:53;10.10;99.90
63966;DHT22;50151;52.030;5.350;2022-09-27T08:50:27;10.10;99.90
63966;DHT22;50151;52.030;5.350;2022-09-27T08:58:29;9.90;99.90
63966;DHT22;50151;52.030;5.350;2022-09-27T09:00:58;10.00;99.90
63966;DHT22;50151;52.030;5.350;2022-09-27T09:03:32;9.90;99.90
63966;DHT22;50151;52.030;5.350;2022-09-27T09:09:02;9.80;99.90
63966;DHT22;50151;52.030;5.350;2022-09-27T09:12:01;9.80;99.90
63966;DHT22;50151;52.030;5.350;2022-09-27T09:15:05;9.80;99.90
63966;DHT22;50151;52.030;5.350;2022-09-27T09:23:48;9.80;99.90
63966;DHT22;50151;52.030;5.350;2022-09-27T09:25:51;9.80;99.90
63966;DHT22;50151;52.030;5.350;2022-09-27T09:33:33;9.70;99.90
63966;DHT22;50151;52.030;5.350;2022-09-27T09:38:58;9.80;99.90
63966;DHT22;50151;52.030;5.350;2022-09-27T09:41:37;9.90;99.90
63966;DHT22;50151;52.030;5.350;2022-09-27T09:44:23;10.00;99.90
63966;DHT22;50151;52.030;5.350;2022-09-27T09:46:58;9.90;99.90
63966;DHT22;50151;52.030;5.350;2022-09-27T09:49:27;9.90;99.90
63966;DHT22;50151;52.030;5.350;2022-09-27T09:52:02;9.90;99.90
63966;DHT22;50151;52.030;5.350;2022-09-27T09:54:46;9.90;99.90
63966;DHT22;50151;52.030;5.350;2022-09-27T09:57:29;10.00;99.90
63966;DHT22;50151;52.030;5.350;2022-09-27T10:00:02;10.00;99.90
63966;DHT22;50151;52.030;5.350;2022-09-27T10:02:38;10.10;99.90
63966;DHT22;50151;52.030;5.350;2022-09-27T10:05:06;10.00;99.90
63966;DHT22;50151;52.030;5.350;2022-09-27T10:07:36;10.20;99.90
63966;DHT22;50151;52.030;5.350;2022-09-27T10:10:06;10.20;99.90
63966;DHT22;50151;52.030;5.350;2022-09-27T10:12:34;10.30;99.90
63966;DHT22;50151;52.030;5.350;2022-09-27T10:15:03;10.30;99.90
63966;DHT22;50151;52.030;5.350;2022-09-27T10:17:40;10.40;99.90
63966;DHT22;50151;52.030;5.350;2022-09-27T10:23:24;10.30;99.90
63966;DHT22;50151;52.030;5.350;2022-09-27T10:26:02;10.30;99.90
63966;DHT22;50151;52.030;5.350;2022-09-27T10:28:35;10.20;99.60
63966;DHT22;50151;52.030;5.350;2022-09-27T10:31:06;10.20;99.90
63966;DHT22;50151;52.030;5.350;2022-09-27T10:33:36;10.20;99.90
63966;DHT22;50151;52.030;5.350;2022-09-27T10:36:03;10.30;99.90
63966;DHT22;50151;52.030;5.350;2022-09-27T10:38:52;10.30;99.30
63966;DHT22;50151;52.030;5.350;2022-09-27T10:41:25;10.40;99.90
63966;DHT22;50151;52.030;5.350;2022-09-27T10:43:53;10.50;99.50
63966;DHT22;50151;52.030;5.350;2022-09-27T10:46:33;10.40;98.30
63966;DHT22;50151;52.030;5.350;2022-09-27T10:49:15;10.50;98.80
63966;DHT22;50151;52.030;5.350;2022-09-27T10:51:42;10.60;99.10
63966;DHT22;50151;52.030;5.350;2022-09-27T10:54:19;10.50;97.60
63966;DHT22;50151;52.030;5.350;2022-09-27T10:56:54;10.40;97.60
63966;DHT22;50151;52.030;5.350;2022-09-27T10:59:22;10.50;98.70
63966;DHT22;50151;52.030;5.350;2022-09-27T11:01:50;10.60;98.90
63966;DHT22;50151;52.030;5.350;2022-09-27T11:04:35;10.60;98.80
63966;DHT22;50151;52.030;5.350;2022-09-27T11:09:56;10.50;99.40
63966;DHT22;50151;52.030;5.350;2022-09-27T11:12:29;10.60;98.50
63966;DHT22;50151;52.030;5.350;2022-09-27T11:15:00;10.40;98.30
63966;DHT22;50151;52.030;5.350;2022-09-27T11:22:51;10.50;99.40
63966;DHT22;50151;52.030;5.350;2022-09-27T11:28:58;10.50;98.50
63966;DHT22;50151;52.030;5.350;2022-09-27T11:34:45;10.40;99.10
63966;DHT22;50151;52.030;5.350;2022-09-27T11:40:04;10.20;97.60
63966;DHT22;50151;52.030;5.350;2022-09-27T11:57:18;10.10;99.90
63966;DHT22;50151;52.030;5.350;2022-09-27T11:59:47;10.20;99.90
63966;DHT22;50151;52.030;5.350;2022-09-27T12:05:26;10.00;99.90
63966;DHT22;50151;52.030;5.350;2022-09-27T12:10:42;10.10;99.80
63966;DHT22;50151;52.030;5.350;2022-09-27T12:13:13;10.20;99.90
63966;DHT22;50151;52.030;5.350;2022-09-27T12:15:43;10.00;98.70
63966;DHT22;50151;52.030;5.350;2022-09-27T12:18:38;10.00;98.50
63966;DHT22;50151;52.030;5.350;2022-09-27T12:21:08;10.00;97.80
63966;DHT22;50151;52.030;5.350;2022-09-27T12:23:42;9.80;98.30
63966;DHT22;50151;52.030;5.350;2022-09-27T12:26:29;9.80;97.40
63966;DHT22;50151;52.030;5.350;2022-09-27T12:32:25;9.80;97.80
63966;DHT22;50151;52.030;5.350;2022-09-27T12:37:41;9.90;98.70
63966;DHT22;50151;52.030;5.350;2022-09-27T12:40:25;9.70;99.30
63966;DHT22;50151;52.030;5.350;2022-09-27T12:43:21;9.80;98.30
63966;DHT22;50151;52.030;5.350;2022-09-27T12:51:49;9.70;96.50
63966;DHT22;50151;52.030;5.350;2022-09-27T12:57:29;9.70;98.30
63966;DHT22;50151;52.030;5.350;2022-09-27T13:00:19;9.90;98.90
63966;DHT22;50151;52.030;5.350;2022-09-27T13:03:00;10.00;99.70
63966;DHT22;50151;52.030;5.350;2022-09-27T13:06:09;10.00;97.50
63966;DHT22;50151;52.030;5.350;2022-09-27T13:09:12;10.10;98.80
63966;DHT22;50151;52.030;5.350;2022-09-27T13:14:21;10.20;97.50
63966;DHT22;50151;52.030;5.350;2022-09-27T13:16:49;10.40;98.40
63966;DHT22;50151;52.030;5.350;2022-09-27T13:22:07;10.50;97.30
63966;DHT22;50151;52.030;5.350;2022-09-27T13:27:34;10.50;96.30
63966;DHT22;50151;52.030;5.350;2022-09-27T13:32:38;10.70;94.70
63966;DHT22;50151;52.030;5.350;2022-09-27T13:35:21;10.90;95.90
63966;DHT22;50151;52.030;5.350;2022-09-27T13:37:57;11.10;95.50
63966;DHT22;50151;52.030;5.350;2022-09-27T13:40:34;11.20;95.70
63966;DHT22;50151;52.030;5.350;2022-09-27T13:45:58;12.10;93.10
63966;DHT22;50151;52.030;5.350;2022-09-27T13:48:31;13.00;92.20
63966;DHT22;50151;52.030;5.350;2022-09-27T13:51:25;13.00;90.60
63966;DHT22;50151;52.030;5.350;2022-09-27T13:53:57;13.40;89.80
63966;DHT22;50151;52.030;5.350;2022-09-27T13:59:32;14.50;84.20
63966;DHT22;50151;52.030;5.350;2022-09-27T14:02:20;14.70;83.90
63966;DHT22;50151;52.030;5.350;2022-09-27T14:04:50;13.80;79.90
63966;DHT22;50151;52.030;5.350;2022-09-27T14:07:22;13.50;81.40
63966;DHT22;50151;52.030;5.350;2022-09-27T14:09:55;13.20;82.20
63966;DHT22;50151;52.030;5.350;2022-09-27T14:12:38;13.00;84.30
63966;DHT22;50151;52.030;5.350;2022-09-27T14:15:07;12.80;85.20
63966;DHT22;50151;52.030;5.350;2022-09-27T14:17:40;12.70;83.40
63966;DHT22;50151;52.030;5.350;2022-09-27T14:20:30;12.70;86.70
63966;DHT22;50151;52.030;5.350;2022-09-27T14:22:59;12.60;84.10
63966;DHT22;50151;52.030;5.350;2022-09-27T14:25:26;12.50;85.90
63966;DHT22;50151;52.030;5.350;2022-09-27T14:27:53;12.40;84.90
63966;DHT22;50151;52.030;5.350;2022-09-27T14:30:23;12.50;87.70
63966;DHT22;50151;52.030;5.350;2022-09-27T14:32:52;12.50;89.00
63966;DHT22;50151;52.030;5.350;2022-09-27T14:35:26;12.60;88.30
63966;DHT22;50151;52.030;5.350;2022-09-27T14:38:15;12.60;88.60
63966;DHT22;50151;52.030;5.350;2022-09-27T14:41:05;12.50;88.60
63966;DHT22;50151;52.030;5.350;2022-09-27T14:43:34;12.50;87.90
63966;DHT22;50151;52.030;5.350;2022-09-27T14:46:04;12.50;87.20
63966;DHT22;50151;52.030;5.350;2022-09-27T14:48:38;12.30;86.10
63966;DHT22;50151;52.030;5.350;2022-09-27T14:56:21;12.30;90.60
63966;DHT22;50151;52.030;5.350;2022-09-27T14:58:53;12.30;90.20
63966;DHT22;50151;52.030;5.350;2022-09-27T15:01:24;12.30;90.20
63966;DHT22;50151;52.030;5.350;2022-09-27T15:03:51;12.20;90.20
63966;DHT22;50151;52.030;5.350;2022-09-27T15:06:19;12.20;90.90
63966;DHT22;50151;52.030;5.350;2022-09-27T15:08:47;12.20;90.10
63966;DHT22;50151;52.030;5.350;2022-09-27T15:11:19;12.20;90.10
63966;DHT22;50151;52.030;5.350;2022-09-27T15:13:49;12.20;90.10
63966;DHT22;50151;52.030;5.350;2022-09-27T15:16:21;12.20;89.50
63966;DHT22;50151;52.030;5.350;2022-09-27T15:18:58;12.20;89.40
63966;DHT22;50151;52.030;5.350;2022-09-27T15:21:34;12.10;89.30
63966;DHT22;50151;52.030;5.350;2022-09-27T15:24:02;12.00;90.00
63966;DHT22;50151;52.030;5.350;2022-09-27T15:26:43;12.00;90.80
63966;DHT22;50151;52.030;5.350;2022-09-27T15:29:19;11.90;91.10
63966;DHT22;50151;52.030;5.350;2022-09-27T15:31:58;11.80;90.50
63966;DHT22;50151;52.030;5.350;2022-09-27T15:34:25;11.90;91.40
63966;DHT22;50151;52.030;5.350;2022-09-27T15:36:56;11.80;91.50
63966;DHT22;50151;52.030;5.350;2022-09-27T15:39:36;11.80;91.60
63966;DHT22;50151;52.030;5.350;2022-09-27T15:42:13;11.70;91.30
63966;DHT22;50151;52.030;5.350;2022-09-27T15:44:54;11.70;91.70
63966;DHT22;50151;52.030;5.350;2022-09-27T15:52:45;11.60;91.20
63966;DHT22;50151;52.030;5.350;2022-09-27T15:55:13;11.60;91.00
63966;DHT22;50151;52.030;5.350;2022-09-27T15:57:40;11.60;91.90
63966;DHT22;50151;52.030;5.350;2022-09-27T16:00:13;11.60;91.30
63966;DHT22;50151;52.030;5.350;2022-09-27T16:02:41;11.40;92.10
63966;DHT22;50151;52.030;5.350;2022-09-27T16:05:08;11.40;91.50
63966;DHT22;50151;52.030;5.350;2022-09-27T16:07:35;11.40;92.10
63966;DHT22;50151;52.030;5.350;2022-09-27T16:10:16;11.40;92.50
63966;DHT22;50151;52.030;5.350;2022-09-27T16:12:43;11.40;93.40
63966;DHT22;50151;52.030;5.350;2022-09-27T16:15:12;11.50;93.60
63966;DHT22;50151;52.030;5.350;2022-09-27T16:17:39;11.30;91.40
63966;DHT22;50151;52.030;5.350;2022-09-27T16:20:20;11.10;90.10
63966;DHT22;50151;52.030;5.350;2022-09-27T16:22:48;11.00;90.30
63966;DHT22;50151;52.030;5.350;2022-09-27T16:25:16;11.00;90.20
63966;DHT22;50151;52.030;5.350;2022-09-27T16:27:42;11.00;90.40
63966;DHT22;50151;52.030;5.350;2022-09-27T16:30:09;10.90;90.10
63966;DHT22;50151;52.030;5.350;2022-09-27T16:32:44;10.90;90.60
63966;DHT22;50151;52.030;5.350;2022-09-27T16:35:12;10.90;90.50
63966;DHT22;50151;52.030;5.350;2022-09-27T16:37:39;10.90;91.30
63966;DHT22;50151;52.030;5.350;2022-09-27T16:40:07;10.90;91.80
63966;DHT22;50151;52.030;5.350;2022-09-27T16:42:35;10.90;91.40
63966;DHT22;50151;52.030;5.350;2022-09-27T16:45:03;10.90;91.90
63966;DHT22;50151;52.030;5.350;2022-09-27T16:47:36;10.90;91.90
63966;DHT22;50151;52.030;5.350;2022-09-27T16:50:03;10.80;92.30
63966;DHT22;50151;52.030;5.350;2022-09-27T16:52:49;10.80;92.00
63966;DHT22;50151;52.030;5.350;2022-09-27T16:55:17;10.80;92.60
63966;DHT22;50151;52.030;5.350;2022-09-27T16:57:47;10.80;92.70
63966;DHT22;50151;52.030;5.350;2022-09-27T17:00:14;10.80;93.60
63966;DHT22;50151;52.030;5.350;2022-09-27T17:02:41;10.70;94.10
63966;DHT22;50151;52.030;5.350;2022-09-27T17:05:13;10.70;93.10
63966;DHT22;50151;52.030;5.350;2022-09-27T17:07:40;10.70;94.10
63966;DHT22;50151;52.030;5.350;2022-09-27T17:10:07;10.70;94.90
63966;DHT22;50151;52.030;5.350;2022-09-27T17:12:34;10.70;94.50
63966;DHT22;50151;52.030;5.350;2022-09-27T17:15:01;10.60;94.80
63966;DHT22;50151;52.030;5.350;2022-09-27T17:17:28;10.60;95.10
63966;DHT22;50151;52.030;5.350;2022-09-27T17:19:54;10.60;94.70
63966;DHT22;50151;52.030;5.350;2022-09-27T17:22:21;10.50;95.60
63966;DHT22;50151;52.030;5.350;2022-09-27T17:24:47;10.50;95.60
63966;DHT22;50151;52.030;5.350;2022-09-27T17:27:14;10.50;95.90
63966;DHT22;50151;52.030;5.350;2022-09-27T17:29:41;10.50;96.20
63966;DHT22;50151;52.030;5.350;2022-09-27T17:32:08;10.50;96.40
63966;DHT22;50151;52.030;5.350;2022-09-27T17:34:35;10.50;96.80
63966;DHT22;50151;52.030;5.350;2022-09-27T17:37:02;10.50;96.40
63966;DHT22;50151;52.030;5.350;2022-09-27T17:39:28;10.50;96.30
63966;DHT22;50151;52.030;5.350;2022-09-27T17:41:55;10.40;97.10
63966;DHT22;50151;52.030;5.350;2022-09-27T17:44:22;10.40;97.00
63966;DHT22;50151;52.030;5.350;2022-09-27T17:46:49;10.30;96.70
63966;DHT22;50151;52.030;5.350;2022-09-27T17:49:36;10.30;96.80
63966;DHT22;50151;52.030;5.350;2022-09-27T17:52:21;10.20;96.70
63966;DHT22;50151;52.030;5.350;2022-09-27T17:54:50;10.30;96.70
63966;DHT22;50151;52.030;5.350;2022-09-27T17:57:20;10.30;97.10
63966;DHT22;50151;52.030;5.350;2022-09-27T17:59:46;10.40;97.50
63966;DHT22;50151;52.030;5.350;2022-09-27T18:02:13;10.40;97.30
63966;DHT22;50151;52.030;5.350;2022-09-27T18:04:40;10.30;97.50
63966;DHT22;50151;52.030;5.350;2022-09-27T18:07:06;10.30;97.80
63966;DHT22;50151;52.030;5.350;2022-09-27T18:09:33;10.30;98.50
63966;DHT22;50151;52.030;5.350;2022-09-27T18:12:00;10.30;98.10
63966;DHT22;50151;52.030;5.350;2022-09-27T18:14:27;10.30;97.70
63966;DHT22;50151;52.030;5.350;2022-09-27T18:16:54;10.20;98.40
63966;DHT22;50151;52.030;5.350;2022-09-27T18:19:23;10.20;98.20
63966;DHT22;50151;52.030;5.350;2022-09-27T18:21:50;10.20;98.60
63966;DHT22;50151;52.030;5.350;2022-09-27T18:24:17;10.10;98.10
63966;DHT22;50151;52.030;5.350;2022-09-27T18:26:44;10.10;98.50
63966;DHT22;50151;52.030;5.350;2022-09-27T18:29:16;10.10;98.60
63966;DHT22;50151;52.030;5.350;2022-09-27T18:31:47;10.10;98.50
63966;DHT22;50151;52.030;5.350;2022-09-27T18:34:16;10.10;98.40
63966;DHT22;50151;52.030;5.350;2022-09-27T18:36:44;10.10;98.90
63966;DHT22;50151;52.030;5.350;2022-09-27T18:39:13;10.10;99.20
63966;DHT22;50151;52.030;5.350;2022-09-27T18:41:41;10.00;99.00
63966;DHT22;50151;52.030;5.350;2022-09-27T18:44:10;10.00;99.20
63966;DHT22;50151;52.030;5.350;2022-09-27T18:46:37;10.00;98.90
63966;DHT22;50151;52.030;5.350;2022-09-27T18:49:06;10.00;99.10
63966;DHT22;50151;52.030;5.350;2022-09-27T18:51:34;10.00;99.20
63966;DHT22;50151;52.030;5.350;2022-09-27T18:54:11;9.90;98.80
63966;DHT22;50151;52.030;5.350;2022-09-27T18:56:38;9.80;99.40
63966;DHT22;50151;52.030;5.350;2022-09-27T18:59:08;9.90;99.90
63966;DHT22;50151;52.030;5.350;2022-09-27T19:01:37;9.90;99.40
63966;DHT22;50151;52.030;5.350;2022-09-27T19:04:07;9.90;99.90
63966;DHT22;50151;52.030;5.350;2022-09-27T19:06:36;10.00;99.80
63966;DHT22;50151;52.030;5.350;2022-09-27T19:09:04;9.90;99.80
63966;DHT22;50151;52.030;5.350;2022-09-27T19:11:32;9.90;99.90
63966;DHT22;50151;52.030;5.350;2022-09-27T19:13:59;9.90;99.90
63966;DHT22;50151;52.030;5.350;2022-09-27T19:16:27;10.00;99.90
63966;DHT22;50151;52.030;5.350;2022-09-27T19:18:54;10.00;99.60
63966;DHT22;50151;52.030;5.350;2022-09-27T19:21:23;9.90;99.90
63966;DHT22;50151;52.030;5.350;2022-09-27T19:23:51;10.00;99.90
63966;DHT22;50151;52.030;5.350;2022-09-27T19:26:20;10.00;99.90
63966;DHT22;50151;52.030;5.350;2022-09-27T19:28:48;10.00;99.90
63966;DHT22;50151;52.030;5.350;2022-09-27T19:31:20;9.90;99.90
63966;DHT22;50151;52.030;5.350;2022-09-27T19:33:48;10.00;99.90
63966;DHT22;50151;52.030;5.350;2022-09-27T19:36:17;10.00;99.90
63966;DHT22;50151;52.030;5.350;2022-09-27T19:38:45;9.90;99.60
63966;DHT22;50151;52.030;5.350;2022-09-27T19:41:14;9.90;99.90
63966;DHT22;50151;52.030;5.350;2022-09-27T19:43:41;9.90;99.90
63966;DHT22;50151;52.030;5.350;2022-09-27T19:46:13;9.90;99.90
63966;DHT22;50151;52.030;5.350;2022-09-27T19:48:44;9.90;99.90
63966;DHT22;50151;52.030;5.350;2022-09-27T19:51:22;9.90;99.90
63966;DHT22;50151;52.030;5.350;2022-09-27T19:53:51;9.90;99.90
63966;DHT22;50151;52.030;5.350;2022-09-27T19:56:19;9.90;99.90
63966;DHT22;50151;52.030;5.350;2022-09-27T19:58:46;9.90;99.90
63966;DHT22;50151;52.030;5.350;2022-09-27T20:01:18;9.90;99.90
63966;DHT22;50151;52.030;5.350;2022-09-27T20:03:47;9.90;99.90
63966;DHT22;50151;52.030;5.350;2022-09-27T20:06:16;9.90;99.90
63966;DHT22;50151;52.030;5.350;2022-09-27T20:08:44;9.90;99.90
63966;DHT22;50151;52.030;5.350;2022-09-27T20:11:13;9.80;99.90
63966;DHT22;50151;52.030;5.350;2022-09-27T20:13:41;9.80;99.90
63966;DHT22;50151;52.030;5.350;2022-09-27T20:16:12;9.90;99.90
63966;DHT22;50151;52.030;5.350;2022-09-27T20:18:44;9.90;99.90
63966;DHT22;50151;52.030;5.350;2022-09-27T20:21:15;9.90;99.90
63966;DHT22;50151;52.030;5.350;2022-09-27T20:23:47;9.90;99.90
63966;DHT22;50151;52.030;5.350;2022-09-27T20:26:15;9.80;99.90
63966;DHT22;50151;52.030;5.350;2022-09-27T20:28:44;9.80;99.90
63966;DHT22;50151;52.030;5.350;2022-09-27T20:31:13;9.80;99.90
63966;DHT22;50151;52.030;5.350;2022-09-27T20:33:41;9.80;99.90
63966;DHT22;50151;52.030;5.350;2022-09-27T20:36:23;9.80;99.90
63966;DHT22;50151;52.030;5.350;2022-09-27T20:38:55;9.70;99.90
63966;DHT22;50151;52.030;5.350;2022-09-27T20:41:29;9.70;99.90
63966;DHT22;50151;52.030;5.350;2022-09-27T20:43:59;9.70;99.90
63966;DHT22;50151;52.030;5.350;2022-09-27T20:46:26;9.70;99.90
63966;DHT22;50151;52.030;5.350;2022-09-27T20:48:55;9.60;99.90
63966;DHT22;50151;52.030;5.350;2022-09-27T20:51:23;9.70;99.90
63966;DHT22;50151;52.030;5.350;2022-09-27T20:53:51;9.60;99.90
63966;DHT22;50151;52.030;5.350;2022-09-27T20:56:33;9.60;99.90
63966;DHT22;50151;52.030;5.350;2022-09-27T20:59:04;9.60;99.90
63966;DHT22;50151;52.030;5.350;2022-09-27T21:01:32;9.60;99.90
63966;DHT22;50151;52.030;5.350;2022-09-27T21:04:01;9.60;99.90
63966;DHT22;50151;52.030;5.350;2022-09-27T21:06:29;9.60;99.90
63966;DHT22;50151;52.030;5.350;2022-09-27T21:08:57;9.60;99.90
